sensor_id;sensor_type;location;lat;lon;timestamp;pressure;altitude;pressure_sealevel;temperature;humidity
19600;BME280;9947;57.722;12.012;2022-12-18T00:02:14;101649.56;;;1.25;100.00
19600;BME280;9947;57.722;12.012;2022-12-18T00:04:41;101633.75;;;1.19;100.00
19600;BME280;9947;57.722;12.012;2022-12-18T00:07:12;101640.81;;;1.20;100.00
19600;BME280;9947;57.722;12.012;2022-12-18T00:09:39;101643.75;;;1.09;100.00
19600;BME280;9947;57.722;12.012;2022-12-18T00:12:06;101634.13;;;1.02;100.00
19600;BME280;9947;57.722;12.012;2022-12-18T00:14:33;101641.16;;;1.06;100.00
19600;BME280;9947;57.722;12.012;2022-12-18T00:17:00;101635.75;;;1.09;100.00
19600;BME280;9947;57.722;12.012;2022-12-18T00:19:30;101630.59;;;1.02;100.00
19600;BME280;9947;57.722;12.012;2022-12-18T00:21:57;101629.78;;;0.98;100.00
19600;BME280;9947;57.722;12.012;2022-12-18T00:24:25;101641.41;;;0.94;100.00
19600;BME280;9947;57.722;12.012;2022-12-18T00:26:52;101644.22;;;0.88;100.00
19600;BME280;9947;57.722;12.012;2022-12-18T00:29:19;101648.69;;;0.87;100.00
19600;BME280;9947;57.722;12.012;2022-12-18T00:31:46;101633.75;;;0.80;100.00
19600;BME280;9947;57.722;12.012;2022-12-18T00:34:13;101638.22;;;0.80;100.00
19600;BME280;9947;57.722;12.012;2022-12-18T00:36:41;101628.63;;;0.71;100.00
19600;BME280;9947;57.722;12.012;2022-12-18T00:39:09;101629.56;;;0.69;100.00
19600;BME280;9947;57.722;12.012;2022-12-18T00:41:38;101632.25;;;0.67;100.00
19600;BME280;9947;57.722;12.012;2022-12-18T00:44:23;101628.78;;;0.64;100.00
19600;BME280;9947;57.722;12.012;2022-12-18T00:46:50;101622.84;;;0.51;100.00
19600;BME280;9947;57.722;12.012;2022-12-18T00:49:18;101625.63;;;0.45;100.00
19600;BME280;9947;57.722;12.012;2022-12-18T00:51:46;101629.25;;;0.42;100.00
19600;BME280;9947;57.722;12.012;2022-12-18T00:54:13;101633.81;;;0.36;100.00
19600;BME280;9947;57.722;12.012;2022-12-18T00:56:42;101638.25;;;0.35;100.00
19600;BME280;9947;57.722;12.012;2022-12-18T00:59:09;101639.13;;;0.36;100.00
19600;BME280;9947;57.722;12.012;2022-12-18T01:01:38;101635.69;;;0.30;100.00
19600;BME280;9947;57.722;12.012;2022-12-18T01:04:05;101640.00;;;0.36;100.00
19600;BME280;9947;57.722;12.012;2022-12-18T01:06:32;101630.19;;;0.40;100.00
19600;BME280;9947;57.722;12.012;2022-12-18T01:08:59;101630.81;;;0.52;100.00
19600;BME280;9947;57.722;12.012;2022-12-18T01:11:26;101637.91;;;0.53;100.00
19600;BME280;9947;57.722;12.012;2022-12-18T01:13:54;101640.56;;;0.52;100.00
19600;BME280;9947;57.722;12.012;2022-12-18T01:16:22;101637.03;;;0.51;100.00
19600;BME280;9947;57.722;12.012;2022-12-18T01:18:52;101642.38;;;0.50;100.00
19600;BME280;9947;57.722;12.012;2022-12-18T01:21:20;101648.59;;;0.49;100.00
19600;BME280;9947;57.722;12.012;2022-12-18T01:23:51;101649.44;;;0.52;100.00
19600;BME280;9947;57.722;12.012;2022-12-18T01:26:18;101641.50;;;0.49;100.00
19600;BME280;9947;57.722;12.012;2022-12-18T01:28:45;101650.38;;;0.48;100.00
19600;BME280;9947;57.722;12.012;2022-12-18T01:31:17;101653.94;;;0.49;100.00
19600;BME280;9947;57.722;12.012;2022-12-18T01:33:45;101651.34;;;0.46;100.00
19600;BME280;9947;57.722;12.012;2022-12-18T01:36:18;101641.84;;;0.34;100.00
19600;BME280;9947;57.722;12.012;2022-12-18T01:38:46;101645.50;;;0.28;100.00
19600;BME280;9947;57.722;12.012;2022-12-18T01:41:15;101656.03;;;0.33;100.00
19600;BME280;9947;57.722;12.012;2022-12-18T01:43:50;101648.97;;;0.32;100.00
19600;BME280;9947;57.722;12.012;2022-12-18T01:46:20;101645.44;;;0.32;100.00
19600;BME280;9947;57.722;12.012;2022-12-18T01:48:50;101639.38;;;0.23;100.00
19600;BME280;9947;57.722;12.012;2022-12-18T01:51:18;101632.22;;;0.25;100.00
19600;BME280;9947;57.722;12.012;2022-12-18T01:53:45;101635.91;;;0.20;100.00
19600;BME280;9947;57.722;12.012;2022-12-18T01:56:16;101634.00;;;0.25;100.00
19600;BME280;9947;57.722;12.012;2022-12-18T01:58:50;101628.69;;;0.25;100.00
19600;BME280;9947;57.722;12.012;2022-12-18T02:01:20;101622.50;;;0.24;100.00
19600;BME280;9947;57.722;12.012;2022-12-18T02:03:48;101621.69;;;0.21;100.00
19600;BME280;9947;57.722;12.012;2022-12-18T02:06:18;101614.59;;;0.21;100.00
19600;BME280;9947;57.722;12.012;2022-12-18T02:09:00;101619.06;;;0.19;100.00
19600;BME280;9947;57.722;12.012;2022-12-18T02:11:39;101603.16;;;0.18;100.00
19600;BME280;9947;57.722;12.012;2022-12-18T02:14:17;101615.53;;;0.19;100.00
19600;BME280;9947;57.722;12.012;2022-12-18T02:16:51;101607.47;;;0.23;100.00
19600;BME280;9947;57.722;12.012;2022-12-18T02:19:37;101607.44;;;0.26;100.00
19600;BME280;9947;57.722;12.012;2022-12-18T02:22:13;101615.16;;;0.37;100.00
19600;BME280;9947;57.722;12.012;2022-12-18T02:24:54;101615.91;;;0.44;100.00
19600;BME280;9947;57.722;12.012;2022-12-18T02:27:27;101619.28;;;0.52;100.00
19600;BME280;9947;57.722;12.012;2022-12-18T02:29:59;101619.25;;;0.55;100.00
19600;BME280;9947;57.722;12.012;2022-12-18T02:32:29;101619.03;;;0.64;100.00
19600;BME280;9947;57.722;12.012;2022-12-18T02:34:59;101617.16;;;0.68;100.00
19600;BME280;9947;57.722;12.012;2022-12-18T02:37:28;101613.56;;;0.70;100.00
19600;BME280;9947;57.722;12.012;2022-12-18T02:39:58;101614.19;;;0.83;100.00
19600;BME280;9947;57.722;12.012;2022-12-18T02:42:27;101610.56;;;0.85;100.00
19600;BME280;9947;57.722;12.012;2022-12-18T02:44:55;101617.59;;;0.88;100.00
19600;BME280;9947;57.722;12.012;2022-12-18T02:47:24;101615.72;;;0.93;100.00
19600;BME280;9947;57.722;12.012;2022-12-18T02:50:02;101615.59;;;0.98;100.00
19600;BME280;9947;57.722;12.012;2022-12-18T02:52:34;101621.72;;;1.01;100.00
19600;BME280;9947;57.722;12.012;2022-12-18T02:55:15;101623.50;;;1.01;100.00
19600;BME280;9947;57.722;12.012;2022-12-18T02:57:52;101623.25;;;1.13;100.00
19600;BME280;9947;57.722;12.012;2022-12-18T03:00:24;101626.78;;;1.13;100.00
19600;BME280;9947;57.722;12.012;2022-12-18T03:02:57;101626.72;;;1.16;100.00
19600;BME280;9947;57.722;12.012;2022-12-18T03:05:31;101632.88;;;1.18;100.00
19600;BME280;9947;57.722;12.012;2022-12-18T03:08:02;101621.22;;;1.22;100.00
19600;BME280;9947;57.722;12.012;2022-12-18T03:10:32;101630.88;;;1.27;100.00
19600;BME280;9947;57.722;12.012;2022-12-18T03:13:05;101615.94;;;1.21;100.00
19600;BME280;9947;57.722;12.012;2022-12-18T03:15:35;101618.53;;;1.24;100.00
19600;BME280;9947;57.722;12.012;2022-12-18T03:18:07;101623.81;;;1.26;100.00
19600;BME280;9947;57.722;12.012;2022-12-18T03:20:38;101626.41;;;1.29;100.00
19600;BME280;9947;57.722;12.012;2022-12-18T03:23:09;101623.66;;;1.33;100.00
19600;BME280;9947;57.722;12.012;2022-12-18T03:25:40;101625.44;;;1.33;100.00
19600;BME280;9947;57.722;12.012;2022-12-18T03:28:13;101631.56;;;1.36;100.00
19600;BME280;9947;57.722;12.012;2022-12-18T03:30:43;101623.44;;;1.41;100.00
19600;BME280;9947;57.722;12.012;2022-12-18T03:33:15;101614.69;;;1.36;100.00
19600;BME280;9947;57.722;12.012;2022-12-18T03:35:45;101619.94;;;1.39;100.00
19600;BME280;9947;57.722;12.012;2022-12-18T03:38:13;101620.00;;;1.37;100.00
19600;BME280;9947;57.722;12.012;2022-12-18T03:40:49;101610.16;;;1.39;100.00
19600;BME280;9947;57.722;12.012;2022-12-18T03:43:29;101603.09;;;1.38;100.00
19600;BME280;9947;57.722;12.012;2022-12-18T03:46:05;101618.28;;;1.35;100.00
19600;BME280;9947;57.722;12.012;2022-12-18T03:48:39;101609.28;;;1.39;100.00
19600;BME280;9947;57.722;12.012;2022-12-18T03:51:10;101617.25;;;1.40;100.00
19600;BME280;9947;57.722;12.012;2022-12-18T03:53:44;101624.44;;;1.37;100.00
19600;BME280;9947;57.722;12.012;2022-12-18T03:56:16;101630.66;;;1.37;100.00
19600;BME280;9947;57.722;12.012;2022-12-18T03:58:45;101629.81;;;1.35;100.00
19600;BME280;9947;57.722;12.012;2022-12-18T04:01:15;101637.72;;;1.38;100.00
19600;BME280;9947;57.722;12.012;2022-12-18T04:03:44;101623.56;;;1.36;100.00
19600;BME280;9947;57.722;12.012;2022-12-18T04:06:14;101622.63;;;1.39;100.00
19600;BME280;9947;57.722;12.012;2022-12-18T04:08:42;101626.16;;;1.39;100.00
19600;BME280;9947;57.722;12.012;2022-12-18T04:11:10;101628.81;;;1.39;100.00
19600;BME280;9947;57.722;12.012;2022-12-18T04:13:38;101628.81;;;1.39;100.00
19600;BME280;9947;57.722;12.012;2022-12-18T04:16:07;101642.03;;;1.44;100.00
19600;BME280;9947;57.722;12.012;2022-12-18T04:18:35;101639.31;;;1.45;100.00
19600;BME280;9947;57.722;12.012;2022-12-18T04:21:03;101648.25;;;1.43;100.00
19600;BME280;9947;57.722;12.012;2022-12-18T04:23:32;101637.50;;;1.47;100.00
19600;BME280;9947;57.722;12.012;2022-12-18T04:25:59;101640.06;;;1.50;100.00
19600;BME280;9947;57.722;12.012;2022-12-18T04:28:26;101637.72;;;1.38;100.00
19600;BME280;9947;57.722;12.012;2022-12-18T04:30:52;101639.34;;;1.44;100.00
19600;BME280;9947;57.722;12.012;2022-12-18T04:33:21;101647.31;;;1.45;100.00
19600;BME280;9947;57.722;12.012;2022-12-18T04:35:48;101636.63;;;1.47;100.00
19600;BME280;9947;57.722;12.012;2022-12-18T04:38:14;101647.47;;;1.39;100.00
19600;BME280;9947;57.722;12.012;2022-12-18T04:40:42;101646.47;;;1.43;100.00
19600;BME280;9947;57.722;12.012;2022-12-18T04:43:09;101654.44;;;1.45;100.00
19600;BME280;9947;57.722;12.012;2022-12-18T04:45:36;101643.81;;;1.43;100.00
19600;BME280;9947;57.722;12.012;2022-12-18T04:48:03;101645.41;;;1.50;100.00
19600;BME280;9947;57.722;12.012;2022-12-18T04:50:33;101646.28;;;1.51;100.00
19600;BME280;9947;57.722;12.012;2022-12-18T04:53:00;101644.75;;;1.41;100.00
19600;BME280;9947;57.722;12.012;2022-12-18T04:55:28;101642.91;;;1.44;100.00
19600;BME280;9947;57.722;12.012;2022-12-18T04:57:55;101643.78;;;1.45;100.00
19600;BME280;9947;57.722;12.012;2022-12-18T05:00:22;101648.19;;;1.46;100.00
19600;BME280;9947;57.722;12.012;2022-12-18T05:02:49;101647.28;;;1.47;100.00
19600;BME280;9947;57.722;12.012;2022-12-18T05:05:16;101660.59;;;1.47;100.00
19600;BME280;9947;57.722;12.012;2022-12-18T05:07:45;101666.00;;;1.44;100.00
19600;BME280;9947;57.722;12.012;2022-12-18T05:10:12;101668.63;;;1.45;100.00
19600;BME280;9947;57.722;12.012;2022-12-18T05:12:38;101671.22;;;1.48;100.00
19600;BME280;9947;57.722;12.012;2022-12-18T05:15:24;101661.50;;;1.46;100.00
19600;BME280;9947;57.722;12.012;2022-12-18T05:17:51;101665.00;;;1.48;100.00
19600;BME280;9947;57.722;12.012;2022-12-18T05:20:18;101663.22;;;1.48;100.00
19600;BME280;9947;57.722;12.012;2022-12-18T05:22:46;101655.09;;;1.53;100.00
19600;BME280;9947;57.722;12.012;2022-12-18T05:25:13;101649.75;;;1.54;100.00
19600;BME280;9947;57.722;12.012;2022-12-18T05:27:40;101665.72;;;1.54;100.00
19600;BME280;9947;57.722;12.012;2022-12-18T05:30:09;101651.56;;;1.52;100.00
19600;BME280;9947;57.722;12.012;2022-12-18T05:32:36;101655.94;;;1.55;100.00
19600;BME280;9947;57.722;12.012;2022-12-18T05:35:06;101659.34;;;1.62;100.00
19600;BME280;9947;57.722;12.012;2022-12-18T05:37:33;101656.69;;;1.62;100.00
19600;BME280;9947;57.722;12.012;2022-12-18T05:40:02;101662.84;;;1.64;100.00
19600;BME280;9947;57.722;12.012;2022-12-18T05:42:30;101669.94;;;1.65;100.00
19600;BME280;9947;57.722;12.012;2022-12-18T05:44:57;101682.44;;;1.63;100.00
19600;BME280;9947;57.722;12.012;2022-12-18T05:47:28;101674.38;;;1.64;100.00
19600;BME280;9947;57.722;12.012;2022-12-18T05:49:57;101677.00;;;1.66;100.00
19600;BME280;9947;57.722;12.012;2022-12-18T05:52:24;101668.94;;;1.69;100.00
19600;BME280;9947;57.722;12.012;2022-12-18T05:54:54;101672.34;;;1.74;100.00
19600;BME280;9947;57.722;12.012;2022-12-18T05:57:22;101668.69;;;1.78;100.00
19600;BME280;9947;57.722;12.012;2022-12-18T05:59:49;101664.34;;;1.74;100.00
19600;BME280;9947;57.722;12.012;2022-12-18T06:02:16;101667.28;;;1.65;100.00
19600;BME280;9947;57.722;12.012;2022-12-18T06:04:46;101681.47;;;1.65;100.00
19600;BME280;9947;57.722;12.012;2022-12-18T06:07:13;101676.91;;;1.70;100.00
19600;BME280;9947;57.722;12.012;2022-12-18T06:09:40;101676.19;;;1.64;100.00
19600;BME280;9947;57.722;12.012;2022-12-18T06:12:07;101685.97;;;1.63;100.00
19600;BME280;9947;57.722;12.012;2022-12-18T06:14:37;101678.75;;;1.67;100.00
19600;BME280;9947;57.722;12.012;2022-12-18T06:17:04;101682.31;;;1.67;100.00
19600;BME280;9947;57.722;12.012;2022-12-18T06:19:31;101669.66;;;1.75;100.00
19600;BME280;9947;57.722;12.012;2022-12-18T06:21:58;101684.00;;;1.70;100.00
19600;BME280;9947;57.722;12.012;2022-12-18T06:24:25;101681.56;;;1.62;100.00
19600;BME280;9947;57.722;12.012;2022-12-18T06:26:52;101676.09;;;1.67;100.00
19600;BME280;9947;57.722;12.012;2022-12-18T06:29:18;101683.97;;;1.71;100.00
19600;BME280;9947;57.722;12.012;2022-12-18T06:31:47;101670.59;;;1.73;100.00
19600;BME280;9947;57.722;12.012;2022-12-18T06:34:14;101672.44;;;1.71;100.00
19600;BME280;9947;57.722;12.012;2022-12-18T06:36:41;101667.94;;;1.73;100.00
19600;BME280;9947;57.722;12.012;2022-12-18T06:39:08;101686.53;;;1.76;100.00
19600;BME280;9947;57.722;12.012;2022-12-18T06:41:35;101674.03;;;1.78;100.00
19600;BME280;9947;57.722;12.012;2022-12-18T06:44:04;101677.47;;;1.81;100.00
19600;BME280;9947;57.722;12.012;2022-12-18T06:46:31;101675.06;;;1.72;100.00
19600;BME280;9947;57.722;12.012;2022-12-18T06:49:02;101677.88;;;1.66;100.00
19600;BME280;9947;57.722;12.012;2022-12-18T06:51:29;101676.06;;;1.68;100.00
19600;BME280;9947;57.722;12.012;2022-12-18T06:53:56;101683.13;;;1.69;100.00
19600;BME280;9947;57.722;12.012;2022-12-18T06:56:23;101686.59;;;1.73;100.00
19600;BME280;9947;57.722;12.012;2022-12-18T06:58:50;101691.72;;;1.80;100.00
19600;BME280;9947;57.722;12.012;2022-12-18T07:01:17;101693.72;;;1.72;100.00
19600;BME280;9947;57.722;12.012;2022-12-18T07:03:44;101696.34;;;1.74;100.00
19600;BME280;9947;57.722;12.012;2022-12-18T07:06:18;101710.59;;;1.73;100.00
19600;BME280;9947;57.722;12.012;2022-12-18T07:08:46;101698.25;;;1.69;100.00
19600;BME280;9947;57.722;12.012;2022-12-18T07:11:14;101696.38;;;1.72;100.00
19600;BME280;9947;57.722;12.012;2022-12-18T07:13:41;101689.19;;;1.76;100.00
19600;BME280;9947;57.722;12.012;2022-12-18T07:16:10;101707.84;;;1.76;100.00
19600;BME280;9947;57.722;12.012;2022-12-18T07:18:37;101698.84;;;1.80;100.00
19600;BME280;9947;57.722;12.012;2022-12-18T07:21:04;101705.09;;;1.79;100.00
19600;BME280;9947;57.722;12.012;2022-12-18T07:23:36;101730.78;;;1.83;100.00
19600;BME280;9947;57.722;12.012;2022-12-18T07:26:04;101723.69;;;1.82;100.00
19600;BME280;9947;57.722;12.012;2022-12-18T07:28:35;101734.34;;;1.82;100.00
19600;BME280;9947;57.722;12.012;2022-12-18T07:31:03;101726.34;;;1.83;100.00
19600;BME280;9947;57.722;12.012;2022-12-18T07:33:32;101735.13;;;1.87;100.00
19600;BME280;9947;57.722;12.012;2022-12-18T07:36:03;101737.72;;;1.90;100.00
19600;BME280;9947;57.722;12.012;2022-12-18T07:38:31;101737.72;;;1.90;100.00
19600;BME280;9947;57.722;12.012;2022-12-18T07:41:01;101739.44;;;1.93;100.00
19600;BME280;9947;57.722;12.012;2022-12-18T07:43:28;101747.38;;;1.94;100.00
19600;BME280;9947;57.722;12.012;2022-12-18T07:45:55;101754.34;;;2.00;100.00
19600;BME280;9947;57.722;12.012;2022-12-18T07:48:25;101738.31;;;2.01;100.00
19600;BME280;9947;57.722;12.012;2022-12-18T07:50:52;101740.84;;;2.06;100.00
19600;BME280;9947;57.722;12.012;2022-12-18T07:53:19;101750.66;;;2.05;100.00
19600;BME280;9947;57.722;12.012;2022-12-18T07:55:46;101747.22;;;2.00;100.00
19600;BME280;9947;57.722;12.012;2022-12-18T07:58:14;101755.19;;;2.02;100.00
19600;BME280;9947;57.722;12.012;2022-12-18T08:00:41;101738.31;;;2.01;100.00
19600;BME280;9947;57.722;12.012;2022-12-18T08:03:08;101741.63;;;2.11;100.00
19600;BME280;9947;57.722;12.012;2022-12-18T08:05:35;101745.31;;;2.05;100.00
19600;BME280;9947;57.722;12.012;2022-12-18T08:08:01;101768.34;;;2.09;100.00
19600;BME280;9947;57.722;12.012;2022-12-18T08:10:30;101762.16;;;2.09;100.00
19600;BME280;9947;57.722;12.012;2022-12-18T08:12:56;101770.09;;;2.10;100.00
19600;BME280;9947;57.722;12.012;2022-12-18T08:15:26;101781.69;;;2.09;100.00
19600;BME280;9947;57.722;12.012;2022-12-18T08:17:56;101778.88;;;2.15;100.00
19600;BME280;9947;57.722;12.012;2022-12-18T08:20:23;101792.25;;;2.14;100.00
19600;BME280;9947;57.722;12.012;2022-12-18T08:22:49;101788.69;;;2.13;100.00
19600;BME280;9947;57.722;12.012;2022-12-18T08:25:16;101789.44;;;2.19;100.00
19600;BME280;9947;57.722;12.012;2022-12-18T08:27:43;101801.16;;;2.13;100.00
19600;BME280;9947;57.722;12.012;2022-12-18T08:30:11;101803.59;;;2.22;100.00
19600;BME280;9947;57.722;12.012;2022-12-18T08:32:40;101801.03;;;2.17;100.00
19600;BME280;9947;57.722;12.012;2022-12-18T08:35:07;101794.63;;;2.25;100.00
19600;BME280;9947;57.722;12.012;2022-12-18T08:37:37;101807.09;;;2.24;100.00
19600;BME280;9947;57.722;12.012;2022-12-18T08:40:05;101806.25;;;2.22;100.00
19600;BME280;9947;57.722;12.012;2022-12-18T08:42:41;101810.78;;;2.19;100.00
19600;BME280;9947;57.722;12.012;2022-12-18T08:45:26;101818.63;;;2.25;100.00
19600;BME280;9947;57.722;12.012;2022-12-18T08:47:54;101822.22;;;2.24;100.00
19600;BME280;9947;57.722;12.012;2022-12-18T08:50:23;101822.00;;;2.31;100.00
19600;BME280;9947;57.722;12.012;2022-12-18T08:52:52;101822.91;;;2.32;100.00
19600;BME280;9947;57.722;12.012;2022-12-18T08:55:19;101831.66;;;2.38;100.00
19600;BME280;9947;57.722;12.012;2022-12-18T08:57:48;101828.06;;;2.39;100.00
19600;BME280;9947;57.722;12.012;2022-12-18T09:00:15;101836.09;;;2.38;100.00
19600;BME280;9947;57.722;12.012;2022-12-18T09:02:42;101846.94;;;2.30;100.00
19600;BME280;9947;57.722;12.012;2022-12-18T09:05:10;101843.44;;;2.28;100.00
19600;BME280;9947;57.722;12.012;2022-12-18T09:07:37;101849.56;;;2.32;100.00
19600;BME280;9947;57.722;12.012;2022-12-18T09:10:06;101853.91;;;2.37;100.00
19600;BME280;9947;57.722;12.012;2022-12-18T09:12:32;101849.53;;;2.35;100.00
19600;BME280;9947;57.722;12.012;2022-12-18T09:14:59;101855.50;;;2.44;100.00
19600;BME280;9947;57.722;12.012;2022-12-18T09:17:26;101858.22;;;2.43;100.00
19600;BME280;9947;57.722;12.012;2022-12-18T09:19:53;101854.78;;;2.38;100.00
19600;BME280;9947;57.722;12.012;2022-12-18T09:22:21;101851.13;;;2.42;100.00
19600;BME280;9947;57.722;12.012;2022-12-18T09:24:48;101852.94;;;2.40;100.00
19600;BME280;9947;57.722;12.012;2022-12-18T09:27:15;101852.78;;;2.46;100.00
19600;BME280;9947;57.722;12.012;2022-12-18T09:29:42;101852.72;;;2.49;100.00
19600;BME280;9947;57.722;12.012;2022-12-18T09:32:09;101866.72;;;2.57;100.00
19600;BME280;9947;57.722;12.012;2022-12-18T09:34:36;101861.34;;;2.60;100.00
19600;BME280;9947;57.722;12.012;2022-12-18T09:37:03;101873.75;;;2.61;100.00
19600;BME280;9947;57.722;12.012;2022-12-18T09:39:34;101879.59;;;2.75;100.00
19600;BME280;9947;57.722;12.012;2022-12-18T09:42:03;101867.56;;;2.61;100.00
19600;BME280;9947;57.722;12.012;2022-12-18T09:44:35;101861.34;;;2.60;100.00
19600;BME280;9947;57.722;12.012;2022-12-18T09:47:07;101860.50;;;2.57;100.00
19600;BME280;9947;57.722;12.012;2022-12-18T09:49:39;101862.22;;;2.61;100.00
19600;BME280;9947;57.722;12.012;2022-12-18T09:52:12;101850.72;;;2.57;100.00
19600;BME280;9947;57.722;12.012;2022-12-18T09:54:47;101853.47;;;2.54;100.00
19600;BME280;9947;57.722;12.012;2022-12-18T09:57:17;101862.31;;;2.56;100.00
19600;BME280;9947;57.722;12.012;2022-12-18T09:59:49;101851.72;;;2.53;100.00
19600;BME280;9947;57.722;12.012;2022-12-18T10:02:20;101856.13;;;2.54;100.00
19600;BME280;9947;57.722;12.012;2022-12-18T10:04:54;101865.22;;;2.47;100.00
19600;BME280;9947;57.722;12.012;2022-12-18T10:07:29;101869.56;;;2.51;100.00
19600;BME280;9947;57.722;12.012;2022-12-18T10:10:06;101868.69;;;2.51;100.00
19600;BME280;9947;57.722;12.012;2022-12-18T10:12:44;101872.19;;;2.53;100.00
19600;BME280;9947;57.722;12.012;2022-12-18T10:15:24;101870.56;;;2.47;100.00
19600;BME280;9947;57.722;12.012;2022-12-18T10:17:58;101873.09;;;2.52;100.00
19600;BME280;9947;57.722;12.012;2022-12-18T10:20:32;101889.91;;;2.55;100.00
19600;BME280;9947;57.722;12.012;2022-12-18T10:23:08;101886.56;;;2.47;100.00
19600;BME280;9947;57.722;12.012;2022-12-18T10:25:43;101880.31;;;2.48;100.00
19600;BME280;9947;57.722;12.012;2022-12-18T10:28:13;101886.00;;;2.34;100.00
19600;BME280;9947;57.722;12.012;2022-12-18T10:30:42;101895.66;;;2.40;100.00
19600;BME280;9947;57.722;12.012;2022-12-18T10:33:11;101895.84;;;2.31;100.00
19600;BME280;9947;57.722;12.012;2022-12-18T10:35:41;101894.19;;;2.27;100.00
19600;BME280;9947;57.722;12.012;2022-12-18T10:38:21;101894.03;;;2.33;100.00
19600;BME280;9947;57.722;12.012;2022-12-18T10:40:54;101899.16;;;2.42;100.00
19600;BME280;9947;57.722;12.012;2022-12-18T10:43:24;101901.09;;;2.34;100.00
19600;BME280;9947;57.722;12.012;2022-12-18T10:46:00;101895.78;;;2.34;100.00
19600;BME280;9947;57.722;12.012;2022-12-18T10:48:29;101909.13;;;2.34;100.00
19600;BME280;9947;57.722;12.012;2022-12-18T10:50:56;101923.09;;;2.45;100.00
19600;BME280;9947;57.722;12.012;2022-12-18T10:53:27;101914.06;;;2.51;100.00
19600;BME280;9947;57.722;12.012;2022-12-18T10:55:57;101921.97;;;2.54;100.00
19600;BME280;9947;57.722;12.012;2022-12-18T10:58:28;101907.69;;;2.56;100.00
19600;BME280;9947;57.722;12.012;2022-12-18T11:01:09;101912.88;;;2.62;100.00
19600;BME280;9947;57.722;12.012;2022-12-18T11:03:38;101918.91;;;2.70;100.00
19600;BME280;9947;57.722;12.012;2022-12-18T11:06:19;101921.41;;;2.76;100.00
19600;BME280;9947;57.722;12.012;2022-12-18T11:08:58;101926.19;;;2.64;100.00
19600;BME280;9947;57.722;12.012;2022-12-18T11:11:28;101926.84;;;2.73;100.00
19600;BME280;9947;57.722;12.012;2022-12-18T11:14:00;101930.25;;;2.78;100.00
19600;BME280;9947;57.722;12.012;2022-12-18T11:16:36;101920.25;;;2.88;100.00
19600;BME280;9947;57.722;12.012;2022-12-18T11:19:28;101930.03;;;2.88;100.00
19600;BME280;9947;57.722;12.012;2022-12-18T11:21:56;101936.09;;;2.94;100.00
19600;BME280;9947;57.722;12.012;2022-12-18T11:24:30;101937.34;;;2.79;100.00
19600;BME280;9947;57.722;12.012;2022-12-18T11:27:18;101935.47;;;2.83;100.00
19600;BME280;9947;57.722;12.012;2022-12-18T11:29:50;101942.53;;;2.86;100.00
19600;BME280;9947;57.722;12.012;2022-12-18T11:32:24;101944.31;;;2.85;100.00
19600;BME280;9947;57.722;12.012;2022-12-18T11:34:59;101938.00;;;2.89;100.00
19600;BME280;9947;57.722;12.012;2022-12-18T11:37:28;101951.53;;;2.82;100.00
19600;BME280;9947;57.722;12.012;2022-12-18T11:40:00;101944.22;;;2.90;100.00
19600;BME280;9947;57.722;12.012;2022-12-18T11:42:34;101951.28;;;2.92;100.00
19600;BME280;9947;57.722;12.012;2022-12-18T11:45:23;101950.53;;;2.87;100.00
19600;BME280;9947;57.722;12.012;2022-12-18T11:47:56;101946.00;;;2.91;100.00
19600;BME280;9947;57.722;12.012;2022-12-18T11:50:26;101948.66;;;2.91;100.00
19600;BME280;9947;57.722;12.012;2022-12-18T11:52:55;101951.41;;;2.88;100.00
19600;BME280;9947;57.722;12.012;2022-12-18T11:55:31;101947.06;;;2.82;100.00
19600;BME280;9947;57.722;12.012;2022-12-18T11:58:07;101952.34;;;2.85;100.00
19600;BME280;9947;57.722;12.012;2022-12-18T12:00:42;101955.00;;;2.87;100.00
19600;BME280;9947;57.722;12.012;2022-12-18T12:03:24;101956.81;;;2.85;100.00
19600;BME280;9947;57.722;12.012;2022-12-18T12:06:06;101964.84;;;2.83;100.00
19600;BME280;9947;57.722;12.012;2022-12-18T12:08:50;101963.47;;;2.68;100.00
19600;BME280;9947;57.722;12.012;2022-12-18T12:11:23;101974.97;;;2.70;100.00
19600;BME280;9947;57.722;12.012;2022-12-18T12:14:04;101983.88;;;2.71;100.00
19600;BME280;9947;57.722;12.012;2022-12-18T12:16:39;101983.81;;;2.72;100.00
19600;BME280;9947;57.722;12.012;2022-12-18T12:19:24;101977.31;;;2.83;100.00
19600;BME280;9947;57.722;12.012;2022-12-18T12:21:58;101966.56;;;2.87;100.00
19600;BME280;9947;57.722;12.012;2022-12-18T12:24:34;101987.03;;;2.87;100.00
19600;BME280;9947;57.722;12.012;2022-12-18T12:27:17;101986.25;;;2.82;100.00
19600;BME280;9947;57.722;12.012;2022-12-18T12:29:55;101992.50;;;2.81;100.00
19600;BME280;9947;57.722;12.012;2022-12-18T12:32:35;101985.97;;;2.94;100.00
19600;BME280;9947;57.722;12.012;2022-12-18T12:35:14;101984.38;;;2.87;100.00
19600;BME280;9947;57.722;12.012;2022-12-18T12:37:55;101986.09;;;2.89;100.00
19600;BME280;9947;57.722;12.012;2022-12-18T12:40:28;101998.38;;;2.96;100.00
19600;BME280;9947;57.722;12.012;2022-12-18T12:43:02;101994.84;;;2.94;100.00
19600;BME280;9947;57.722;12.012;2022-12-18T12:45:45;101989.34;;;3.00;100.00
19600;BME280;9947;57.722;12.012;2022-12-18T12:48:17;101990.41;;;2.95;100.00
19600;BME280;9947;57.722;12.012;2022-12-18T12:50:46;101991.53;;;2.85;100.00
19600;BME280;9947;57.722;12.012;2022-12-18T12:53:21;101994.03;;;2.92;100.00
19600;BME280;9947;57.722;12.012;2022-12-18T12:55:49;101994.19;;;2.85;100.00
19600;BME280;9947;57.722;12.012;2022-12-18T12:58:23;101996.94;;;2.82;100.00
19600;BME280;9947;57.722;12.012;2022-12-18T13:01:03;102004.88;;;2.85;100.00
19600;BME280;9947;57.722;12.012;2022-12-18T13:03:44;102003.91;;;2.89;100.00
19600;BME280;9947;57.722;12.012;2022-12-18T13:06:19;102007.69;;;2.78;100.00
19600;BME280;9947;57.722;12.012;2022-12-18T13:08:54;102007.75;;;2.77;100.00